createdAt,value
2019-03-06T00:00:49.679Z,6.80
2019-03-06T00:03:17.770Z,6.80
2019-03-06T00:05:45.822Z,7.50
2019-03-06T00:08:13.868Z,6.87
2019-03-06T00:10:42.005Z,8.27
2019-03-06T00:13:10.137Z,7.67
2019-03-06T00:15:38.195Z,7.83
2019-03-06T00:18:06.250Z,9.20
2019-03-06T00:20:34.359Z,8.87
2019-03-06T00:23:02.428Z,8.70
2019-03-06T00:25:30.474Z,8.83
2019-03-06T00:27:58.538Z,8.80
2019-03-06T00:30:26.863Z,8.10
2019-03-06T00:32:54.930Z,8.43
2019-03-06T00:35:24.622Z,7.30
2019-03-06T00:37:52.771Z,7.97
2019-03-06T00:40:22.646Z,7.20
2019-03-06T00:42:51.042Z,7.03
2019-03-06T00:45:19.091Z,7.50
2019-03-06T00:47:47.162Z,7.57
2019-03-06T00:50:15.213Z,8.03
2019-03-06T00:52:43.258Z,9.97
2019-03-06T00:55:11.702Z,8.33
2019-03-06T00:57:39.754Z,8.27
2019-03-06T01:00:15.159Z,8.27
2019-03-06T01:02:43.212Z,9.07
2019-03-06T01:05:11.258Z,9.27
2019-03-06T01:07:39.614Z,9.33
2019-03-06T01:10:09.534Z,10.00
2019-03-06T01:12:37.857Z,9.73
2019-03-06T01:15:06.500Z,10.40
2019-03-06T01:17:34.609Z,10.30
2019-03-06T01:20:04.153Z,11.20
2019-03-06T01:22:32.230Z,10.37
2019-03-06T01:25:00.327Z,10.07
2019-03-06T01:27:28.549Z,10.33
2019-03-06T01:29:56.606Z,10.20
2019-03-06T01:32:24.931Z,9.77
2019-03-06T01:35:10.834Z,10.00
2019-03-06T01:37:40.558Z,10.20
2019-03-06T01:40:10.633Z,10.17
2019-03-06T01:42:40.493Z,10.37
2019-03-06T01:45:09.185Z,10.50
2019-03-06T01:47:37.255Z,9.73
2019-03-06T01:50:06.892Z,9.90
2019-03-06T01:52:34.998Z,11.27
2019-03-06T01:55:04.006Z,10.73
2019-03-06T01:57:32.064Z,10.27
2019-03-06T02:00:00.304Z,10.27
2019-03-06T02:02:28.463Z,10.47
2019-03-06T02:04:56.502Z,10.77
2019-03-06T02:07:24.742Z,11.10
2019-03-06T02:09:52.903Z,11.27
2019-03-06T02:12:21.086Z,10.77
2019-03-06T02:14:49.171Z,11.13
2019-03-06T02:17:17.234Z,10.77
2019-03-06T02:19:45.270Z,11.47
2019-03-06T02:22:13.334Z,12.50
2019-03-06T02:24:41.386Z,11.73
2019-03-06T02:27:09.434Z,10.90
2019-03-06T02:29:37.502Z,11.77
2019-03-06T02:32:05.600Z,10.93
2019-03-06T02:34:33.653Z,12.00
2019-03-06T02:37:01.798Z,12.70
2019-03-06T02:39:29.865Z,12.77
2019-03-06T02:41:57.925Z,13.20
2019-03-06T02:44:25.982Z,12.17
2019-03-06T02:46:54.023Z,12.40
2019-03-06T02:49:22.083Z,12.83
2019-03-06T02:51:50.138Z,13.77
2019-03-06T02:54:18.199Z,13.17
2019-03-06T02:56:46.267Z,12.90
2019-03-06T02:59:15.961Z,12.93
2019-03-06T03:01:45.828Z,12.90
2019-03-06T03:04:15.519Z,13.30
2019-03-06T03:06:50.859Z,13.60
2019-03-06T03:09:19.014Z,13.07
2019-03-06T03:11:47.074Z,13.57
2019-03-06T03:14:15.126Z,11.70
2019-03-06T03:16:43.175Z,12.50
2019-03-06T03:19:11.230Z,12.33
2019-03-06T03:21:39.275Z,12.83
2019-03-06T03:24:07.340Z,13.53
2019-03-06T03:26:35.470Z,14.03
2019-03-06T03:29:03.530Z,13.90
2019-03-06T03:31:31.584Z,14.37
2019-03-06T03:33:59.635Z,14.57
2019-03-06T03:36:27.714Z,14.00
2019-03-06T03:38:55.833Z,13.40
2019-03-06T03:41:23.882Z,14.37
2019-03-06T03:43:52.019Z,14.70
2019-03-06T03:46:20.079Z,14.67
2019-03-06T03:48:48.148Z,14.97
2019-03-06T03:51:16.177Z,15.00
2019-03-06T03:53:44.257Z,14.50
2019-03-06T03:56:12.319Z,14.07
2019-03-06T03:58:40.380Z,14.20
2019-03-06T04:01:08.433Z,14.43
2019-03-06T04:03:36.484Z,14.80
2019-03-06T04:06:04.569Z,13.67
2019-03-06T04:08:32.915Z,14.77
2019-03-06T04:11:00.954Z,15.70
2019-03-06T04:13:29.026Z,15.07
2019-03-06T04:15:57.085Z,15.83
2019-03-06T04:18:25.135Z,20.00
2019-03-06T04:20:53.182Z,17.97
2019-03-06T04:23:21.259Z,14.97
2019-03-06T04:25:49.332Z,14.07
2019-03-06T04:28:17.370Z,15.63
2019-03-06T04:30:45.421Z,20.03
2019-03-06T04:33:13.497Z,14.80
2019-03-06T04:35:41.538Z,14.80
2019-03-06T04:38:09.584Z,14.23
2019-03-06T04:40:37.670Z,13.97
2019-03-06T04:43:05.734Z,14.87
2019-03-06T04:45:33.794Z,14.23
2019-03-06T04:48:01.838Z,16.80
2019-03-06T04:50:29.892Z,16.27
2019-03-06T04:52:57.972Z,21.37
2019-03-06T04:55:26.023Z,16.87
2019-03-06T04:57:54.067Z,17.17
2019-03-06T05:00:22.706Z,17.00
2019-03-06T05:02:51.228Z,16.13
2019-03-06T05:05:19.246Z,14.83
2019-03-06T05:07:47.289Z,12.93
2019-03-06T05:10:15.382Z,14.23
2019-03-06T05:12:43.434Z,13.33
2019-03-06T05:15:30.831Z,16.57
2019-03-06T05:18:03.526Z,17.67
2019-03-06T05:20:31.624Z,17.23
2019-03-06T05:22:59.670Z,16.53
2019-03-06T05:25:28.006Z,17.47
2019-03-06T05:27:56.065Z,16.70
2019-03-06T05:30:25.755Z,17.07
2019-03-06T05:32:55.353Z,15.87
2019-03-06T05:35:33.678Z,15.23
2019-03-06T05:38:09.430Z,13.07
2019-03-06T05:40:37.478Z,11.93
2019-03-06T05:43:05.548Z,10.93
2019-03-06T05:45:33.608Z,10.90
2019-03-06T05:48:01.926Z,9.67
2019-03-06T05:50:29.974Z,10.90
2019-03-06T05:52:58.967Z,11.50
2019-03-06T05:55:27.014Z,11.10
2019-03-06T05:57:55.062Z,10.77
2019-03-06T06:00:25.053Z,9.67
2019-03-06T06:02:53.106Z,10.53
2019-03-06T06:05:21.162Z,9.90
2019-03-06T06:07:49.231Z,10.53
2019-03-06T06:10:17.282Z,10.73
2019-03-06T06:12:45.334Z,10.63
2019-03-06T06:15:14.093Z,10.10
2019-03-06T06:17:42.136Z,10.17
2019-03-06T06:20:10.946Z,11.27
2019-03-06T06:22:57.053Z,9.87
2019-03-06T06:25:25.175Z,9.70
2019-03-06T06:27:53.262Z,10.20
2019-03-06T06:30:22.139Z,10.27
2019-03-06T06:32:50.278Z,10.83
2019-03-06T06:35:18.322Z,11.37
2019-03-06T06:37:46.373Z,11.67
2019-03-06T06:40:14.634Z,13.27
2019-03-06T06:42:42.704Z,12.97
2019-03-06T06:45:12.289Z,12.20
2019-03-06T06:47:58.401Z,13.07
2019-03-06T06:50:26.531Z,11.50
2019-03-06T06:53:14.677Z,12.73
2019-03-06T06:55:47.411Z,10.33
2019-03-06T06:58:19.710Z,10.57
2019-03-06T07:00:56.850Z,10.90
2019-03-06T07:03:50.322Z,10.23
2019-03-06T07:06:35.198Z,10.03
2019-03-06T07:09:17.098Z,10.33
2019-03-06T07:11:49.450Z,10.60
2019-03-06T07:14:19.130Z,10.23
2019-03-06T07:16:54.946Z,10.53
2019-03-06T07:19:30.639Z,8.67
2019-03-06T07:22:00.330Z,9.97
2019-03-06T07:24:45.094Z,10.00
2019-03-06T07:27:30.822Z,10.10
2019-03-06T07:30:03.561Z,8.83
2019-03-06T07:32:42.239Z,9.53
2019-03-06T07:35:45.218Z,7.13
2019-03-06T07:38:13.306Z,6.80
2019-03-06T07:40:59.131Z,6.53
2019-03-06T07:43:31.495Z,6.27
2019-03-06T07:46:01.173Z,6.27
2019-03-06T07:48:33.798Z,5.97
2019-03-06T07:51:03.523Z,5.67
2019-03-06T07:53:58.737Z,6.13
2019-03-06T07:56:40.977Z,5.37
2019-03-06T07:59:10.499Z,5.97
2019-03-06T08:01:40.242Z,4.93
2019-03-06T08:04:09.379Z,5.10
2019-03-06T08:06:37.503Z,5.90
2019-03-06T08:09:07.433Z,5.37
2019-03-06T08:11:41.110Z,5.47
2019-03-06T08:14:10.811Z,6.27
2019-03-06T08:16:43.416Z,5.93
2019-03-06T08:19:15.758Z,6.10
2019-03-06T08:21:45.442Z,6.53
2019-03-06T08:24:15.117Z,5.70
2019-03-06T08:26:43.182Z,5.63
2019-03-06T08:29:11.218Z,5.67
2019-03-06T08:31:40.910Z,5.53
2019-03-06T08:34:08.977Z,5.27
2019-03-06T08:36:37.009Z,5.43
2019-03-06T08:39:06.890Z,5.00
2019-03-06T08:41:34.976Z,5.33
2019-03-06T08:44:03.121Z,5.40
2019-03-06T08:46:35.580Z,5.40
2019-03-06T08:49:14.240Z,5.03
2019-03-06T08:51:59.662Z,5.30
2019-03-06T08:54:29.306Z,4.90
2019-03-06T08:57:01.662Z,4.83
2019-03-06T08:59:31.357Z,5.47
2019-03-06T09:02:03.993Z,4.47
2019-03-06T09:04:34.540Z,4.60
2019-03-06T09:07:19.157Z,4.27
2019-03-06T09:09:54.752Z,4.70
2019-03-06T09:12:27.114Z,4.33
2019-03-06T09:15:08.582Z,4.20
2019-03-06T09:17:53.157Z,4.53
2019-03-06T09:20:41.014Z,4.60
2019-03-06T09:23:13.500Z,4.30
2019-03-06T09:25:43.191Z,4.80
2019-03-06T09:28:15.722Z,3.80
2019-03-06T09:31:01.515Z,3.53
2019-03-06T09:33:31.202Z,4.07
2019-03-06T09:36:03.832Z,3.80
2019-03-06T09:38:33.510Z,2.93
2019-03-06T09:41:06.017Z,2.90
2019-03-06T09:43:38.619Z,3.17
2019-03-06T09:46:26.737Z,3.23
2019-03-06T09:48:56.591Z,2.90
2019-03-06T09:51:26.297Z,3.50
2019-03-06T09:53:55.994Z,3.27
2019-03-06T09:56:34.234Z,3.07
2019-03-06T09:59:12.862Z,3.33
2019-03-06T10:01:42.546Z,3.00
2019-03-06T10:04:12.234Z,3.10
2019-03-06T10:06:56.944Z,2.90
2019-03-06T10:09:35.633Z,2.93
2019-03-06T10:12:14.316Z,3.27
2019-03-06T10:14:46.872Z,3.40
2019-03-06T10:17:19.411Z,3.07
2019-03-06T10:19:49.104Z,3.43
2019-03-06T10:22:17.180Z,2.70
2019-03-06T10:24:45.259Z,2.83
2019-03-06T10:27:13.307Z,2.50
2019-03-06T10:29:41.366Z,2.80
2019-03-06T10:32:09.412Z,2.37
2019-03-06T10:34:37.446Z,2.50
2019-03-06T10:39:34.623Z,2.77
2019-03-06T10:42:02.701Z,2.50
2019-03-06T10:44:30.785Z,2.70
2019-03-06T10:46:58.828Z,2.80
2019-03-06T10:49:27.167Z,2.50
2019-03-06T10:51:55.222Z,2.37
2019-03-06T10:54:23.327Z,2.37
2019-03-06T10:56:51.378Z,1.90
2019-03-06T10:59:19.417Z,1.87
2019-03-06T11:01:47.618Z,2.10
2019-03-06T11:04:19.715Z,2.00
2019-03-06T11:06:47.839Z,2.13
2019-03-06T11:09:15.862Z,1.87
2019-03-06T11:11:43.935Z,1.97
2019-03-06T11:14:12.055Z,1.63
2019-03-06T11:16:40.186Z,1.60
2019-03-06T11:19:08.669Z,0.90
2019-03-06T11:21:36.738Z,1.07
2019-03-06T11:24:06.225Z,1.30
2019-03-06T11:26:34.516Z,1.00
2019-03-06T11:29:02.975Z,0.90
2019-03-06T11:31:31.715Z,1.50
2019-03-06T11:33:59.754Z,1.07
2019-03-06T11:36:27.834Z,0.90
2019-03-06T11:38:55.885Z,1.00
2019-03-06T11:41:23.924Z,0.90
2019-03-06T11:43:52.044Z,0.90
2019-03-06T11:46:20.100Z,1.00
2019-03-06T11:48:48.126Z,0.70
2019-03-06T11:51:16.290Z,0.67
2019-03-06T11:53:44.330Z,0.73
2019-03-06T11:56:12.380Z,0.70
2019-03-06T11:58:40.425Z,0.70
2019-03-06T12:01:10.262Z,0.80
2019-03-06T12:03:38.306Z,0.70
2019-03-06T12:06:06.362Z,0.80
2019-03-06T12:08:34.633Z,0.80
2019-03-06T12:11:02.746Z,0.83
2019-03-06T12:13:30.801Z,0.70
2019-03-06T12:15:58.847Z,0.90
2019-03-06T12:18:27.090Z,0.90
2019-03-06T12:20:55.136Z,1.10
2019-03-06T12:23:23.181Z,0.60
2019-03-06T12:25:51.238Z,1.33
2019-03-06T12:28:19.278Z,0.90
2019-03-06T12:30:47.451Z,0.90
2019-03-06T12:33:19.957Z,0.90
2019-03-06T12:35:48.133Z,0.53
2019-03-06T12:38:16.242Z,0.70
2019-03-06T12:40:44.358Z,1.20
2019-03-06T12:43:12.412Z,0.80
2019-03-06T12:45:40.542Z,0.77
2019-03-06T12:48:15.558Z,0.70
2019-03-06T12:50:53.059Z,0.97
2019-03-06T12:53:13.421Z,1.07
2019-03-06T12:55:42.726Z,0.67
2019-03-06T12:58:10.879Z,0.90
2019-03-06T13:00:39.074Z,1.10
2019-03-06T13:03:07.193Z,1.17
2019-03-06T13:05:35.238Z,0.93
2019-03-06T13:08:03.338Z,0.70
2019-03-06T13:10:31.433Z,0.70
2019-03-06T13:12:59.493Z,0.80
2019-03-06T13:15:27.549Z,0.70
2019-03-06T13:17:55.763Z,0.80
2019-03-06T13:20:23.946Z,0.90
2019-03-06T13:22:53.257Z,1.10
2019-03-06T13:25:21.946Z,0.87
2019-03-06T13:27:54.793Z,0.87
2019-03-06T13:30:22.248Z,0.67
2019-03-06T13:32:51.926Z,0.80
2019-03-06T13:35:19.993Z,0.77
2019-03-06T13:37:48.042Z,1.00
2019-03-06T13:40:18.773Z,0.93
2019-03-06T13:42:45.850Z,1.03
2019-03-06T13:45:14.378Z,0.80
2019-03-06T13:47:42.470Z,0.70
2019-03-06T13:50:11.689Z,0.70
2019-03-06T13:52:40.673Z,0.67
2019-03-06T13:55:09.605Z,0.83
2019-03-06T13:57:37.829Z,0.80
2019-03-06T14:00:10.406Z,0.63
2019-03-06T14:02:38.450Z,0.80
2019-03-06T14:05:07.303Z,0.70
2019-03-06T14:07:35.335Z,0.90
2019-03-06T14:10:04.466Z,0.83
2019-03-06T14:12:32.507Z,0.60
2019-03-06T14:15:00.558Z,1.17
2019-03-06T14:17:28.895Z,1.07
2019-03-06T14:19:56.950Z,0.90
2019-03-06T14:22:24.986Z,0.70
2019-03-06T14:24:53.053Z,0.50
2019-03-06T14:27:22.042Z,0.97
2019-03-06T14:29:51.162Z,0.83
2019-03-06T14:32:19.685Z,0.93
2019-03-06T14:34:47.747Z,0.90
2019-03-06T14:37:15.796Z,0.83
2019-03-06T14:39:43.835Z,0.63
2019-03-06T14:42:11.949Z,0.90
2019-03-06T14:44:40.145Z,0.73
2019-03-06T14:47:08.210Z,0.60
2019-03-06T14:49:36.432Z,0.67
2019-03-06T14:52:07.548Z,0.80
2019-03-06T14:54:34.416Z,0.70
2019-03-06T14:57:02.524Z,0.80
2019-03-06T14:59:30.582Z,0.80
2019-03-06T15:01:58.639Z,0.90
2019-03-06T15:04:26.855Z,0.60
2019-03-06T15:06:54.907Z,0.80
2019-03-06T15:09:23.822Z,0.60
2019-03-06T15:11:51.871Z,0.90
2019-03-06T15:14:19.926Z,1.00
2019-03-06T15:16:47.970Z,0.90
2019-03-06T15:19:16.066Z,0.90
2019-03-06T15:21:44.148Z,0.80
2019-03-06T15:24:12.213Z,0.80
2019-03-06T15:26:40.267Z,1.00
2019-03-06T15:29:08.350Z,0.90
2019-03-06T15:31:36.423Z,0.63
2019-03-06T15:34:04.461Z,0.80
2019-03-06T15:36:32.781Z,0.77
2019-03-06T15:39:00.899Z,0.60
2019-03-06T15:41:29.018Z,0.90
2019-03-06T15:43:57.066Z,1.10
2019-03-06T15:46:25.118Z,0.73
2019-03-06T15:48:53.340Z,1.03
2019-03-06T15:51:22.901Z,0.90
2019-03-06T15:53:50.983Z,0.67
2019-03-06T15:56:19.030Z,0.60
2019-03-06T15:58:47.075Z,0.90
2019-03-06T16:01:15.119Z,0.70
2019-03-06T16:03:43.243Z,0.83
2019-03-06T16:06:20.087Z,0.80
2019-03-06T16:08:41.426Z,0.77
2019-03-06T16:11:09.538Z,1.10
2019-03-06T16:13:37.583Z,0.50
2019-03-06T16:16:05.834Z,0.73
2019-03-06T16:18:33.938Z,1.13
2019-03-06T16:21:02.348Z,0.70
2019-03-06T16:23:30.421Z,0.80
2019-03-06T16:25:59.361Z,0.80
2019-03-06T16:28:27.396Z,0.77
2019-03-06T16:30:55.519Z,0.83
2019-03-06T16:33:23.562Z,1.00
2019-03-06T16:35:51.650Z,0.60
2019-03-06T16:38:19.706Z,1.00
2019-03-06T16:40:47.910Z,0.80
2019-03-06T16:43:16.030Z,1.10
2019-03-06T16:45:44.153Z,0.70
2019-03-06T16:48:12.193Z,0.93
2019-03-06T16:50:40.335Z,1.20
2019-03-06T16:53:08.482Z,1.13
2019-03-06T16:55:36.526Z,0.80
2019-03-06T16:58:04.598Z,1.07
2019-03-06T17:00:33.110Z,0.90
2019-03-06T17:03:02.034Z,0.83
2019-03-06T17:05:30.130Z,0.90
2019-03-06T17:07:58.482Z,1.00
2019-03-06T17:10:27.329Z,1.07
2019-03-06T17:12:55.566Z,1.53
2019-03-06T17:15:24.152Z,1.07
2019-03-06T17:17:52.306Z,0.93
2019-03-06T17:20:21.419Z,1.00
2019-03-06T17:22:49.696Z,1.00
2019-03-06T17:25:17.835Z,1.17
2019-03-06T17:27:45.947Z,1.03
2019-03-06T17:30:15.671Z,1.30
2019-03-06T17:32:54.351Z,1.40
2019-03-06T17:35:23.149Z,1.30
2019-03-06T17:37:51.202Z,1.10
2019-03-06T17:40:19.400Z,1.30
2019-03-06T17:42:47.463Z,1.37
2019-03-06T17:45:16.678Z,1.20
2019-03-06T17:47:44.942Z,1.50
2019-03-06T17:50:14.413Z,1.43
2019-03-06T17:52:42.454Z,1.30
2019-03-06T17:55:10.770Z,1.13
2019-03-06T17:57:38.986Z,1.27
2019-03-06T18:00:16.643Z,1.33
2019-03-06T18:02:38.496Z,1.80
2019-03-06T18:05:06.846Z,1.30
2019-03-06T18:07:34.959Z,3.83
2019-03-06T18:10:03.966Z,1.30
2019-03-06T18:12:32.013Z,1.77
2019-03-06T18:15:00.058Z,2.33
2019-03-06T18:17:28.102Z,1.60
2019-03-06T18:19:56.164Z,1.67
2019-03-06T18:22:24.378Z,1.63
2019-03-06T18:24:52.497Z,1.70
2019-03-06T18:27:26.337Z,1.67
2019-03-06T18:29:50.322Z,1.60
2019-03-06T18:32:18.362Z,1.90
2019-03-06T18:34:46.434Z,1.67
2019-03-06T18:37:14.538Z,2.33
2019-03-06T18:39:42.582Z,1.80
2019-03-06T18:42:10.634Z,1.73
2019-03-06T18:44:38.695Z,1.77
2019-03-06T18:47:06.862Z,1.97
2019-03-06T18:49:34.986Z,1.90
2019-03-06T18:52:03.069Z,4.23
2019-03-06T18:54:31.396Z,6.47
2019-03-06T18:56:59.462Z,3.73
2019-03-06T18:59:27.516Z,3.20
2019-03-06T19:01:55.562Z,3.27
2019-03-06T19:04:24.593Z,3.03
2019-03-06T19:06:52.642Z,3.27
2019-03-06T19:09:20.735Z,2.70
2019-03-06T19:11:48.798Z,3.03
2019-03-06T19:14:16.851Z,3.63
2019-03-06T19:16:44.943Z,3.50
2019-03-06T19:19:12.990Z,2.90
2019-03-06T19:21:41.098Z,2.50
2019-03-06T19:24:09.231Z,2.60
2019-03-06T19:26:37.546Z,2.80
2019-03-06T19:29:05.672Z,2.50
2019-03-06T19:31:35.013Z,2.73
2019-03-06T19:34:04.170Z,2.43
2019-03-06T19:36:32.216Z,2.50
2019-03-06T19:39:00.261Z,2.37
2019-03-06T19:41:28.301Z,2.37
2019-03-06T19:43:56.447Z,2.80
2019-03-06T19:46:26.419Z,2.60
2019-03-06T19:48:54.501Z,4.20
2019-03-06T19:51:22.536Z,3.30
2019-03-06T19:53:50.596Z,3.23
2019-03-06T19:56:18.714Z,3.63
2019-03-06T19:58:47.070Z,3.57
2019-03-06T20:01:15.172Z,3.87
2019-03-06T20:03:43.223Z,3.90
2019-03-06T20:06:11.574Z,4.00
2019-03-06T20:08:39.690Z,3.63
2019-03-06T20:11:07.750Z,3.37
2019-03-06T20:13:35.814Z,3.17
2019-03-06T20:16:04.338Z,3.00
2019-03-06T20:18:32.404Z,3.03
2019-03-06T20:21:00.523Z,3.17
2019-03-06T20:23:28.562Z,2.43
2019-03-06T20:25:56.626Z,3.00
2019-03-06T20:28:24.683Z,3.80
2019-03-06T20:30:52.823Z,3.50
2019-03-06T20:33:21.286Z,3.50
2019-03-06T20:35:49.338Z,4.03
2019-03-06T20:38:17.387Z,5.70
2019-03-06T20:40:45.529Z,5.13
2019-03-06T20:43:13.608Z,4.07
2019-03-06T20:45:41.671Z,5.13
2019-03-06T20:48:09.769Z,3.73
2019-03-06T20:50:38.099Z,3.60
2019-03-06T20:53:06.149Z,3.30
2019-03-06T20:55:34.214Z,4.10
2019-03-06T20:58:02.544Z,3.63
2019-03-06T21:00:30.587Z,3.50
2019-03-06T21:02:58.645Z,3.47
2019-03-06T21:05:26.778Z,3.87
2019-03-06T21:07:55.335Z,4.33
2019-03-06T21:10:23.515Z,3.77
2019-03-06T21:12:51.943Z,3.60
2019-03-06T21:15:21.538Z,2.87
2019-03-06T21:17:49.634Z,3.03
2019-03-06T21:20:18.387Z,2.43
2019-03-06T21:22:46.429Z,2.60
2019-03-06T21:25:15.538Z,3.10
2019-03-06T21:27:43.606Z,3.10
2019-03-06T21:30:16.893Z,3.80
2019-03-06T21:32:44.935Z,3.17
2019-03-06T21:35:13.004Z,3.20
2019-03-06T21:37:41.046Z,4.03
2019-03-06T21:40:10.710Z,3.03
2019-03-06T21:42:38.762Z,3.23
2019-03-06T21:45:08.387Z,3.40
2019-03-06T21:47:36.467Z,2.90
2019-03-06T21:50:06.044Z,3.00
2019-03-06T21:52:34.094Z,3.00
2019-03-06T21:55:02.147Z,2.83
2019-03-06T21:57:30.292Z,2.60
2019-03-06T21:59:59.309Z,2.83
2019-03-06T22:02:27.430Z,2.40
2019-03-06T22:04:55.475Z,2.53
2019-03-06T22:07:23.523Z,2.93
2019-03-06T22:09:52.025Z,2.43
2019-03-06T22:12:20.126Z,2.53
2019-03-06T22:14:48.162Z,2.50
2019-03-06T22:17:16.370Z,2.30
2019-03-06T22:19:44.426Z,2.57
2019-03-06T22:22:12.477Z,3.10
2019-03-06T22:24:40.530Z,2.33
2019-03-06T22:27:08.573Z,2.40
2019-03-06T22:29:36.625Z,4.90
2019-03-06T22:32:04.673Z,2.23
2019-03-06T22:34:32.710Z,2.23
2019-03-06T22:37:00.775Z,2.27
2019-03-06T22:39:28.861Z,2.53
2019-03-06T22:41:56.942Z,2.63
2019-03-06T22:44:25.034Z,2.23
2019-03-06T22:46:53.088Z,2.40
2019-03-06T22:49:21.139Z,2.50
2019-03-06T22:51:49.189Z,2.33
2019-03-06T22:54:17.226Z,2.27
2019-03-06T22:56:45.341Z,2.17
2019-03-06T22:59:13.390Z,2.60
2019-03-06T23:01:41.717Z,2.30
2019-03-06T23:04:09.773Z,2.20
2019-03-06T23:06:37.811Z,2.27
2019-03-06T23:09:06.523Z,2.60
2019-03-06T23:11:34.633Z,2.37
2019-03-06T23:14:02.697Z,2.40
2019-03-06T23:16:30.755Z,3.00
2019-03-06T23:18:58.806Z,2.10
2019-03-06T23:21:26.873Z,2.10
2019-03-06T23:23:55.150Z,2.53
2019-03-06T23:26:23.234Z,2.60
2019-03-06T23:28:51.326Z,2.53
2019-03-06T23:31:19.374Z,2.37
2019-03-06T23:33:47.431Z,2.40
2019-03-06T23:36:15.659Z,2.50
2019-03-06T23:38:43.698Z,2.10
2019-03-06T23:41:11.758Z,3.53
2019-03-06T23:43:39.807Z,2.43
2019-03-06T23:46:07.855Z,2.30
2019-03-06T23:48:35.911Z,2.13
2019-03-06T23:51:05.862Z,2.50
2019-03-06T23:53:35.568Z,2.27
2019-03-06T23:56:03.603Z,2.40
2019-03-06T23:58:31.766Z,2.27
